Time;durP1;ratioP1;P1;durP2;ratioP2;P2;SDS_P1;SDS_P2;PMS_P1;PMS_P2;Temp;Humidity;BMP_temperature;BMP_pressure;BME280_temperature;BME280_humidity;BME280_pressure;Samples;Min_cycle;Max_cycle;Signal;HPM_P1;HPM_P2
2023/12/07 00:00:29;;;;;;;25.92;15.80;;;0.80;99.90;;;;;;6272057;22;20103;-81
2023/12/07 00:03:17;;;;;;;27.92;15.85;;;0.80;99.90;;;;;;6274732;22;20034;-79
2023/12/07 00:06:07;;;;;;;25.52;15.35;;;0.80;99.90;;;;;;6277720;22;20034;-81
2023/12/07 00:08:54;;;;;;;27.60;16.02;;;0.80;99.90;;;;;;6273520;22;20662;-81
2023/12/07 00:11:41;;;;;;;25.33;14.90;;;0.70;99.90;;;;;;6271333;22;20283;-81
2023/12/07 00:14:29;;;;;;;24.88;13.80;;;0.70;99.90;;;;;;6274455;22;20024;-81
2023/12/07 00:17:16;;;;;;;20.80;14.13;;;0.60;99.90;;;;;;6272784;22;20102;-82
2023/12/07 00:20:09;;;;;;;22.98;15.02;;;0.60;99.90;;;;;;6271170;22;20024;-80
2023/12/07 00:22:56;;;;;;;26.17;15.20;;;0.60;99.90;;;;;;6275857;22;20105;-81
2023/12/07 00:25:45;;;;;;;26.80;14.68;;;0.60;99.90;;;;;;6276002;22;20024;-80
2023/12/07 00:28:35;;;;;;;24.50;15.10;;;0.60;99.90;;;;;;6275023;22;20047;-81
2023/12/07 00:31:22;;;;;;;27.80;16.52;;;0.70;99.90;;;;;;6273808;22;20039;-81
2023/12/07 00:34:09;;;;;;;25.92;15.93;;;0.70;99.90;;;;;;6275308;22;20299;-79
2023/12/07 00:36:57;;;;;;;27.85;16.20;;;0.70;99.90;;;;;;6276824;22;20024;-81
2023/12/07 00:39:45;;;;;;;24.80;15.65;;;0.70;99.90;;;;;;6276401;22;20024;-76
2023/12/07 00:42:45;;;;;;;25.60;15.48;;;0.60;99.90;;;;;;6278600;22;20094;-80
2023/12/07 00:45:33;;;;;;;24.63;14.88;;;0.60;99.90;;;;;;6276795;22;20031;-80
2023/12/07 00:48:20;;;;;;;21.58;13.40;;;0.60;99.90;;;;;;6275937;22;20027;-80
2023/12/07 00:51:07;;;;;;;20.95;13.73;;;0.70;99.90;;;;;;6275360;22;20035;-82
2023/12/07 00:53:55;;;;;;;21.45;13.05;;;0.70;99.90;;;;;;6275535;22;20038;-82
2023/12/07 00:56:42;;;;;;;22.13;13.32;;;0.60;99.90;;;;;;6276444;22;20020;-83
2023/12/07 00:59:33;;;;;;;23.25;12.98;;;0.60;99.90;;;;;;6273321;22;20028;-82
2023/12/07 01:02:21;;;;;;;20.90;13.20;;;0.60;99.90;;;;;;6275772;22;20485;-82
2023/12/07 01:05:08;;;;;;;22.67;12.35;;;0.60;99.90;;;;;;6274103;22;20269;-80
2023/12/07 01:07:56;;;;;;;21.80;12.88;;;0.60;99.90;;;;;;6269010;22;20023;-82
2023/12/07 01:10:45;;;;;;;21.67;13.80;;;0.60;99.90;;;;;;6269844;22;20095;-82
2023/12/07 01:13:33;;;;;;;20.92;12.38;;;0.60;99.90;;;;;;6272419;22;20033;-80
2023/12/07 01:16:20;;;;;;;20.27;12.13;;;0.60;99.90;;;;;;6272915;22;20445;-81
2023/12/07 01:19:08;;;;;;;20.10;13.25;;;0.60;99.90;;;;;;6275122;22;20024;-78
2023/12/07 01:21:55;;;;;;;20.17;13.60;;;0.60;96.40;;;;;;6272678;22;20038;-80
2023/12/07 01:24:43;;;;;;;18.92;11.48;;;0.60;89.80;;;;;;6273089;22;20268;-81
2023/12/07 01:27:37;;;;;;;21.08;12.95;;;0.60;91.60;;;;;;6272607;22;20032;-79
2023/12/07 01:30:24;;;;;;;21.48;14.10;;;0.50;97.30;;;;;;6274392;22;20028;-77
2023/12/07 01:33:11;;;;;;;20.98;12.85;;;0.60;97.60;;;;;;6275718;22;20306;-80
2023/12/07 01:35:58;;;;;;;21.63;13.45;;;0.50;96.30;;;;;;6271707;22;20046;-81
2023/12/07 01:38:45;;;;;;;23.23;12.82;;;0.50;99.90;;;;;;6272996;22;20019;-81
2023/12/07 01:41:33;;;;;;;21.63;13.18;;;0.40;99.90;;;;;;6272770;22;20482;-82
2023/12/07 01:44:20;;;;;;;21.35;12.85;;;0.30;99.90;;;;;;6271432;22;20027;-80
2023/12/07 01:47:08;;;;;;;23.30;13.02;;;0.30;99.90;;;;;;6271322;22;20363;-81
2023/12/07 01:49:55;;;;;;;17.88;12.20;;;0.20;99.90;;;;;;6276416;22;20377;-81
2023/12/07 01:52:48;;;;;;;21.63;12.57;;;0.10;99.90;;;;;;6274804;22;20024;-81
2023/12/07 01:55:36;;;;;;;21.15;13.43;;;0.00;99.90;;;;;;6274439;22;20024;-79
2023/12/07 01:58:23;;;;;;;23.65;14.82;;;0.00;99.90;;;;;;6274029;22;20023;-80
2023/12/07 02:01:12;;;;;;;27.33;15.73;;;0.10;99.90;;;;;;6271086;22;20030;-80
2023/12/07 02:03:59;;;;;;;30.70;16.25;;;0.00;99.90;;;;;;6273447;22;20030;-78
2023/12/07 02:06:50;;;;;;;32.05;17.48;;;0.00;99.90;;;;;;6277061;22;20035;-80
2023/12/07 02:09:38;;;;;;;28.20;17.02;;;-0.10;99.90;;;;;;6275204;22;20294;-81
2023/12/07 02:12:29;;;;;;;30.83;18.38;;;-0.10;99.90;;;;;;6272682;22;20027;-80
2023/12/07 02:15:19;;;;;;;31.30;18.25;;;-0.10;99.90;;;;;;6272591;22;20057;-81
2023/12/07 02:18:15;;;;;;;32.40;16.75;;;0.00;99.90;;;;;;6275722;22;20028;-81
2023/12/07 02:21:14;;;;;;;29.05;17.20;;;0.00;99.90;;;;;;6275910;22;20371;-81
2023/12/07 02:24:02;;;;;;;28.25;17.10;;;0.20;99.90;;;;;;6273647;22;20023;-79
2023/12/07 02:26:52;;;;;;;27.50;16.73;;;0.20;99.90;;;;;;6273328;22;20445;-80
2023/12/07 02:29:39;;;;;;;30.17;17.38;;;0.20;99.90;;;;;;6270784;22;20028;-80
2023/12/07 02:32:27;;;;;;;29.38;18.80;;;0.20;99.90;;;;;;6270239;22;20073;-80
2023/12/07 02:35:16;;;;;;;29.27;17.35;;;0.20;99.90;;;;;;6271197;22;20030;-80
2023/12/07 02:38:05;;;;;;;27.75;16.52;;;0.10;99.90;;;;;;6272428;22;20023;-81
2023/12/07 02:40:55;;;;;;;28.27;17.15;;;0.10;99.90;;;;;;6271930;22;20031;-80
2023/12/07 02:43:42;;;;;;;25.20;15.93;;;0.10;99.90;;;;;;6272122;22;20145;-81
2023/12/07 02:46:32;;;;;;;25.10;15.10;;;0.00;99.90;;;;;;6273237;22;20027;-79
2023/12/07 02:49:21;;;;;;;26.50;15.32;;;-0.10;99.90;;;;;;6271826;22;20027;-81
2023/12/07 02:52:11;;;;;;;27.50;15.10;;;-0.20;99.90;;;;;;6271104;22;20042;-81
2023/12/07 02:55:00;;;;;;;22.33;14.05;;;-0.40;99.90;;;;;;6275184;22;20035;-80
2023/12/07 02:57:47;;;;;;;25.70;15.40;;;-0.50;99.90;;;;;;6274749;22;20111;-82
2023/12/07 03:00:35;;;;;;;26.45;14.77;;;-0.50;99.90;;;;;;6272030;22;20027;-80
2023/12/07 03:03:22;;;;;;;25.27;14.70;;;-0.60;99.90;;;;;;6269189;22;20027;-76
2023/12/07 03:06:09;;;;;;;26.17;15.35;;;-0.70;99.90;;;;;;6273883;22;20020;-81
2023/12/07 03:08:57;;;;;;;27.33;15.98;;;-0.80;99.90;;;;;;6275341;22;20522;-81
2023/12/07 03:11:44;;;;;;;24.67;14.00;;;-0.80;99.90;;;;;;6271679;22;20024;-82
2023/12/07 03:14:31;;;;;;;24.45;15.82;;;-0.80;99.90;;;;;;6272062;22;20378;-80
2023/12/07 03:17:21;;;;;;;30.83;16.63;;;-0.90;99.90;;;;;;6274610;22;20027;-79
2023/12/07 03:20:10;;;;;;;29.60;17.08;;;-0.80;99.90;;;;;;6270561;22;20023;-80
2023/12/07 03:22:58;;;;;;;30.52;18.38;;;-0.70;99.90;;;;;;6274249;22;20019;-80
2023/12/07 03:25:47;;;;;;;30.73;18.20;;;-0.70;99.90;;;;;;6273574;22;20028;-81
2023/12/07 03:28:37;;;;;;;32.53;17.80;;;-0.80;99.90;;;;;;6273694;22;20515;-80
2023/12/07 03:31:27;;;;;;;33.67;18.48;;;-0.80;99.90;;;;;;6272145;22;20027;-81
2023/12/07 03:34:15;;;;;;;32.35;20.00;;;-0.80;99.90;;;;;;6271050;22;20024;-80
2023/12/07 03:37:04;;;;;;;39.10;20.88;;;-0.70;99.90;;;;;;6273466;22;20027;-79
2023/12/07 03:39:53;;;;;;;36.20;20.73;;;-0.60;99.90;;;;;;6271684;22;20079;-79
2023/12/07 03:42:43;;;;;;;35.25;19.50;;;-0.60;99.90;;;;;;6274636;22;20035;-77
2023/12/07 03:45:42;;;;;;;41.13;20.20;;;-0.60;99.90;;;;;;6272792;22;20038;-75
2023/12/07 03:48:29;;;;;;;35.80;18.05;;;-0.60;99.90;;;;;;6274370;22;20399;-82
2023/12/07 03:51:17;;;;;;;36.85;19.33;;;-0.70;99.90;;;;;;6273717;22;20036;-81
2023/12/07 03:54:05;;;;;;;33.72;19.77;;;-0.70;99.90;;;;;;6270254;22;20038;-81
2023/12/07 03:56:52;;;;;;;36.72;19.58;;;-0.70;99.90;;;;;;6272059;22;20089;-80
2023/12/07 03:59:40;;;;;;;36.47;20.35;;;-0.80;99.90;;;;;;6272359;22;20045;-81
2023/12/07 04:02:30;;;;;;;36.33;20.10;;;-0.80;99.90;;;;;;6272126;22;20019;-81
2023/12/07 04:05:17;;;;;;;35.55;20.10;;;-0.70;99.90;;;;;;6271779;22;20060;-80
2023/12/07 04:08:07;;;;;;;34.00;20.00;;;-0.80;99.90;;;;;;6270485;22;20074;-82
2023/12/07 04:10:57;;;;;;;35.20;19.83;;;-0.80;99.90;;;;;;6272612;22;20065;-81
2023/12/07 04:13:45;;;;;;;35.78;18.83;;;-1.00;99.90;;;;;;6273465;22;20027;-81
2023/12/07 04:16:32;;;;;;;36.60;19.17;;;-1.10;99.90;;;;;;6270266;22;20116;-81
2023/12/07 04:19:19;;;;;;;37.42;19.77;;;-1.20;99.90;;;;;;6269596;22;20031;-81
2023/12/07 04:22:07;;;;;;;34.30;19.13;;;-1.30;99.90;;;;;;6274200;22;20041;-77
2023/12/07 04:24:56;;;;;;;37.65;20.92;;;-1.30;99.90;;;;;;6272207;22;20089;-81
2023/12/07 04:27:46;;;;;;;45.47;22.40;;;-1.20;99.90;;;;;;6272449;22;20051;-78
2023/12/07 04:30:40;;;;;;;39.83;22.00;;;-1.10;99.90;;;;;;6272948;22;20263;-79
2023/12/07 04:33:30;;;;;;;44.17;22.42;;;-1.00;99.90;;;;;;6272276;22;20034;-79
2023/12/07 04:36:19;;;;;;;44.35;22.40;;;-1.00;99.90;;;;;;6271651;22;20063;-77
2023/12/07 04:39:08;;;;;;;40.20;22.77;;;-1.00;99.90;;;;;;6270988;22;20019;-79
2023/12/07 04:41:55;;;;;;;46.97;23.35;;;-1.00;99.90;;;;;;6271335;22;20035;-81
2023/12/07 04:44:42;;;;;;;41.90;23.17;;;-1.00;99.90;;;;;;6270744;22;20037;-80
2023/12/07 04:47:31;;;;;;;42.38;23.15;;;-1.10;99.90;;;;;;6273066;22;20038;-80
2023/12/07 04:50:21;;;;;;;42.55;22.83;;;-1.20;99.90;;;;;;6271537;22;20440;-80
2023/12/07 04:53:08;;;;;;;42.33;22.02;;;-1.40;99.90;;;;;;6271083;22;20028;-80
2023/12/07 04:55:58;;;;;;;41.78;21.58;;;-1.60;99.90;;;;;;6270587;22;20035;-81
2023/12/07 04:58:45;;;;;;;39.65;21.75;;;-1.60;99.90;;;;;;6272886;22;20024;-79
2023/12/07 05:01:32;;;;;;;40.60;20.98;;;-1.70;99.90;;;;;;6271444;22;20061;-78
2023/12/07 05:04:19;;;;;;;36.10;20.48;;;-1.80;99.90;;;;;;6271838;22;20016;-78
2023/12/07 05:07:07;;;;;;;40.83;22.17;;;-1.90;99.90;;;;;;6272439;22;20325;-77
2023/12/07 05:09:54;;;;;;;42.65;21.08;;;-2.00;99.90;;;;;;6274931;22;20132;-79
2023/12/07 05:12:41;;;;;;;39.03;19.35;;;-2.20;99.90;;;;;;6271471;22;20043;-79
2023/12/07 05:15:30;;;;;;;36.10;20.25;;;-2.30;99.90;;;;;;6273208;22;20170;-75
2023/12/07 05:18:17;;;;;;;45.83;20.67;;;-2.40;99.90;;;;;;6275898;22;20110;-78
2023/12/07 05:21:07;;;;;;;36.42;20.13;;;-2.40;99.90;;;;;;6274722;22;20030;-78
2023/12/07 05:23:55;;;;;;;39.95;20.65;;;-2.40;99.90;;;;;;6273724;22;20020;-78
2023/12/07 05:26:45;;;;;;;37.22;19.67;;;-2.50;99.90;;;;;;6273661;22;20053;-78
2023/12/07 05:29:33;;;;;;;40.53;21.27;;;-2.50;99.90;;;;;;6273400;22;20081;-79
2023/12/07 05:32:20;;;;;;;41.53;20.80;;;-2.60;99.90;;;;;;6271135;22;20145;-79
2023/12/07 05:35:08;;;;;;;44.15;21.60;;;-2.60;99.90;;;;;;6273548;22;20061;-79
2023/12/07 05:37:55;;;;;;;39.47;20.48;;;-2.60;99.90;;;;;;6274590;22;20019;-79
2023/12/07 05:40:42;;;;;;;39.83;21.58;;;-2.70;99.90;;;;;;6271886;22;20405;-78
2023/12/07 05:43:30;;;;;;;39.55;19.95;;;-2.60;99.90;;;;;;6272096;22;20361;-79
2023/12/07 05:46:21;;;;;;;41.67;21.48;;;-2.70;99.90;;;;;;6275111;22;20034;-80
2023/12/07 05:49:10;;;;;;;38.20;20.42;;;-2.70;99.90;;;;;;6275606;22;20469;-79
2023/12/07 05:51:58;;;;;;;41.70;20.80;;;-2.80;99.90;;;;;;6276145;22;20034;-75
2023/12/07 05:54:48;;;;;;;38.63;20.70;;;-2.80;99.90;;;;;;6273025;22;20275;-78
2023/12/07 05:57:38;;;;;;;41.22;21.27;;;-2.80;99.90;;;;;;6273188;22;20035;-79
2023/12/07 06:00:27;;;;;;;39.00;21.35;;;-2.80;99.90;;;;;;6271577;22;20098;-78
2023/12/07 06:03:15;;;;;;;42.10;21.25;;;-2.80;99.90;;;;;;6276640;22;20581;-80
2023/12/07 06:06:03;;;;;;;38.50;20.02;;;-2.80;99.90;;;;;;6275505;22;20354;-79
2023/12/07 06:08:51;;;;;;;41.50;20.65;;;-2.90;99.90;;;;;;6253020;22;20130;-79
2023/12/07 06:11:40;;;;;;;42.80;21.35;;;-3.00;99.90;;;;;;6273023;22;20368;-79
2023/12/07 06:14:27;;;;;;;41.25;21.55;;;-3.00;99.90;;;;;;6273854;22;20028;-80
2023/12/07 06:17:15;;;;;;;42.17;23.02;;;-3.00;99.90;;;;;;6274175;22;20430;-79
2023/12/07 06:20:03;;;;;;;45.10;22.55;;;-3.00;99.90;;;;;;6272401;22;20019;-79
2023/12/07 06:22:50;;;;;;;43.78;22.15;;;-3.10;99.90;;;;;;6273469;22;20023;-80
2023/12/07 06:25:38;;;;;;;43.88;22.33;;;-3.10;99.90;;;;;;6272454;22;20035;-79
2023/12/07 06:28:25;;;;;;;47.50;22.77;;;-3.10;99.90;;;;;;6271988;22;20035;-80
2023/12/07 06:31:12;;;;;;;61.97;25.23;;;-3.10;99.90;;;;;;6272928;22;20028;-80
2023/12/07 06:34:03;;;;;;;55.83;25.98;;;-3.10;99.90;;;;;;6272981;22;20267;-80
2023/12/07 06:36:52;;;;;;;53.15;24.85;;;-3.10;99.90;;;;;;6273238;22;20019;-76
2023/12/07 06:39:40;;;;;;;54.03;25.17;;;-3.20;99.90;;;;;;6273638;22;20023;-80
2023/12/07 06:42:27;;;;;;;52.15;25.98;;;-3.20;99.90;;;;;;6275079;22;20329;-80
2023/12/07 06:45:14;;;;;;;58.75;25.33;;;-3.30;99.90;;;;;;6271048;22;20296;-78
2023/12/07 06:48:01;;;;;;;50.78;26.17;;;-3.30;99.90;;;;;;6272669;22;20387;-78
2023/12/07 06:50:54;;;;;;;56.53;26.38;;;-3.20;99.90;;;;;;6273455;22;20312;-79
2023/12/07 06:53:41;;;;;;;57.17;28.05;;;-3.20;99.90;;;;;;6273846;22;20046;-78
2023/12/07 06:56:28;;;;;;;58.15;27.50;;;-3.10;99.90;;;;;;6270856;22;20019;-78
2023/12/07 06:59:16;;;;;;;54.20;27.15;;;-3.00;99.90;;;;;;6272401;22;20028;-77
2023/12/07 07:02:04;;;;;;;62.08;28.85;;;-3.00;99.90;;;;;;6270583;22;20203;-79
2023/12/07 07:04:51;;;;;;;57.10;29.08;;;-3.10;99.90;;;;;;6273645;22;20333;-78
2023/12/07 07:07:39;;;;;;;66.25;29.17;;;-3.10;99.90;;;;;;6274372;22;20023;-80
2023/12/07 07:10:26;;;;;;;74.63;32.63;;;-3.10;99.90;;;;;;6272059;22;20024;-79
2023/12/07 07:13:19;;;;;;;80.03;35.90;;;-3.10;99.90;;;;;;6271217;22;20040;-80
2023/12/07 07:16:09;;;;;;;73.75;32.20;;;-3.00;99.90;;;;;;6272570;22;20023;-78
2023/12/07 07:18:56;;;;;;;74.63;31.60;;;-2.90;99.90;;;;;;6274569;22;20023;-81
2023/12/07 07:21:43;;;;;;;86.43;35.45;;;-2.80;99.90;;;;;;6273439;22;20691;-79
2023/12/07 07:24:31;;;;;;;72.13;35.60;;;-2.80;99.90;;;;;;6274065;22;20027;-78
2023/12/07 07:27:18;;;;;;;75.22;35.15;;;-2.60;99.90;;;;;;6276313;22;20090;-77
2023/12/07 07:30:06;;;;;;;70.90;33.65;;;-2.50;99.90;;;;;;6275477;22;20027;-80
2023/12/07 07:32:53;;;;;;;63.97;31.05;;;-2.40;99.90;;;;;;6275428;22;20024;-79
2023/12/07 07:35:41;;;;;;;59.78;27.85;;;-2.30;99.90;;;;;;6270445;22;20058;-80
2023/12/07 07:38:31;;;;;;;65.32;29.75;;;-2.30;99.90;;;;;;6272496;22;20047;-80
2023/12/07 07:41:18;;;;;;;67.30;30.00;;;-2.20;99.90;;;;;;6272665;22;20093;-79
2023/12/07 07:44:05;;;;;;;74.90;30.52;;;-2.20;99.90;;;;;;6270113;22;20023;-79
2023/12/07 07:46:55;;;;;;;74.50;31.70;;;-2.10;99.90;;;;;;6272536;22;20495;-81
2023/12/07 07:49:42;;;;;;;72.13;33.90;;;-1.90;99.90;;;;;;6270334;22;20019;-78
2023/12/07 07:52:30;;;;;;;71.85;33.60;;;-1.90;99.90;;;;;;6273969;22;20028;-80
2023/12/07 07:55:17;;;;;;;69.50;34.05;;;-1.80;99.90;;;;;;6272558;22;20411;-81
2023/12/07 07:58:05;;;;;;;77.20;34.40;;;-1.70;99.90;;;;;;6273271;22;20034;-78
2023/12/07 08:00:55;;;;;;;73.13;32.63;;;-1.60;99.90;;;;;;6273229;22;20027;-79
2023/12/07 08:03:45;;;;;;;69.10;33.55;;;-1.40;99.90;;;;;;6273822;22;20029;-77
2023/12/07 08:06:32;;;;;;;69.65;31.55;;;-1.20;99.90;;;;;;6275858;22;20034;-79
2023/12/07 08:09:24;;;;;;;69.85;32.33;;;-0.90;99.90;;;;;;6275848;22;20024;-80
2023/12/07 08:12:11;;;;;;;73.32;35.55;;;-0.70;99.90;;;;;;6272438;22;20429;-79
2023/12/07 08:14:59;;;;;;;76.18;34.50;;;-0.50;99.90;;;;;;6271538;22;20086;-80
2023/12/07 08:17:46;;;;;;;75.18;32.75;;;-0.40;99.90;;;;;;6272395;22;20054;-80
2023/12/07 08:20:34;;;;;;;71.05;31.95;;;-0.30;99.90;;;;;;6270804;22;20032;-80
2023/12/07 08:23:21;;;;;;;74.28;33.60;;;0.00;99.90;;;;;;6274274;22;20418;-80
2023/12/07 08:26:11;;;;;;;61.05;31.27;;;0.20;99.90;;;;;;6269875;22;20019;-80
2023/12/07 08:29:00;;;;;;;68.47;32.92;;;0.50;99.90;;;;;;6273087;22;20028;-81
2023/12/07 08:31:51;;;;;;;68.03;31.98;;;0.60;99.90;;;;;;6274109;22;20175;-80
2023/12/07 08:34:38;;;;;;;65.57;30.67;;;0.50;99.90;;;;;;6271515;22;20117;-80
2023/12/07 08:37:26;;;;;;;58.25;30.60;;;0.10;99.90;;;;;;6272028;22;20117;-80
2023/12/07 08:40:15;;;;;;;65.38;31.20;;;-0.10;99.90;;;;;;6274618;22;20024;-77
2023/12/07 08:43:04;;;;;;;74.25;35.90;;;-0.10;99.90;;;;;;6277719;22;20134;-78
2023/12/07 08:45:52;;;;;;;67.95;33.67;;;0.10;99.90;;;;;;6274922;22;20093;-80
2023/12/07 08:48:42;;;;;;;73.13;33.15;;;0.30;99.90;;;;;;6276929;22;20024;-81
2023/12/07 08:51:30;;;;;;;62.88;28.48;;;0.50;99.90;;;;;;6276744;22;20051;-79
2023/12/07 08:54:17;;;;;;;53.58;29.00;;;0.50;99.90;;;;;;6275167;22;20382;-80
2023/12/07 08:57:07;;;;;;;52.63;27.10;;;0.60;99.90;;;;;;6274184;22;20031;-81
2023/12/07 08:59:54;;;;;;;61.88;31.35;;;0.90;99.90;;;;;;6275533;22;20543;-81
2023/12/07 09:07:16;;;;;;;51.40;27.45;;;0.90;99.90;;;;;;6180981;23;20020;-79
2023/12/07 09:10:53;;;;;;;49.42;27.65;;;1.30;99.90;;;;;;6252570;22;20027;-80
2023/12/07 09:13:59;;;;;;;45.90;25.02;;;1.80;99.90;;;;;;6273013;22;20115;-82
2023/12/07 09:16:46;;;;;;;31.67;20.52;;;2.10;99.90;;;;;;6275775;22;20094;-81
2023/12/07 09:19:34;;;;;;;41.72;20.23;;;2.10;99.90;;;;;;6273764;22;20024;-81
2023/12/07 09:22:21;;;;;;;32.78;18.30;;;2.00;99.90;;;;;;6275680;22;20019;-81
2023/12/07 09:25:23;;;;;;;31.30;16.67;;;2.10;99.90;;;;;;6273888;22;20449;-81
2023/12/07 09:28:14;;;;;;;29.02;16.25;;;2.40;99.90;;;;;;6273556;22;20027;-81
2023/12/07 09:31:03;;;;;;;22.80;14.45;;;3.00;99.90;;;;;;6278074;22;20039;-79
2023/12/07 09:33:53;;;;;;;22.23;12.38;;;3.90;99.90;;;;;;6279246;22;20027;-82
2023/12/07 09:36:41;;;;;;;17.65;11.23;;;5.00;99.90;;;;;;6274134;22;20023;-81
2023/12/07 09:39:28;;;;;;;20.35;10.73;;;5.90;99.90;;;;;;6274491;22;20715;-79
2023/12/07 09:42:18;;;;;;;29.52;10.18;;;6.70;99.90;;;;;;6275198;22;20042;-82
2023/12/07 09:45:12;;;;;;;13.20;8.05;;;7.80;99.90;;;;;;6277644;22;20027;-83
2023/12/07 09:48:02;;;;;;;16.00;9.52;;;8.90;1.00;;;;;;6278194;22;20110;-84
2023/12/07 09:50:56;;;;;;;14.00;9.80;;;9.10;1.00;;;;;;6276753;22;20027;-84
2023/12/07 09:53:47;;;;;;;13.55;9.45;;;9.20;99.90;;;;;;6274629;22;20038;-85
2023/12/07 09:56:37;;;;;;;13.30;8.95;;;9.00;1.00;;;;;;6274782;22;20027;-85
2023/12/07 09:59:27;;;;;;;10.82;8.20;;;9.50;99.90;;;;;;6274469;22;20028;-84
2023/12/07 10:02:14;;;;;;;11.77;8.50;;;10.80;99.90;;;;;;6275674;22;20035;-84
2023/12/07 10:05:05;;;;;;;12.73;8.32;;;11.90;1.00;;;;;;6273519;22;20450;-86
2023/12/07 10:07:53;;;;;;;10.93;7.07;;;12.40;1.00;;;;;;6274312;22;20028;-85
2023/12/07 10:10:46;;;;;;;11.60;7.32;;;12.50;1.00;;;;;;6275572;22;20016;-85
2023/12/07 10:13:34;;;;;;;9.77;6.72;;;12.70;99.90;;;;;;6275345;22;20020;-86
2023/12/07 10:16:24;;;;;;;11.60;7.70;;;13.00;99.90;;;;;;6275653;22;20358;-84
2023/12/07 10:19:21;;;;;;;9.95;6.82;;;12.20;99.90;;;;;;6274073;22;20131;-84
2023/12/07 10:22:18;;;;;;;12.05;6.43;;;12.90;99.90;;;;;;6273126;22;20098;-84
2023/12/07 10:25:06;;;;;;;8.25;6.43;;;12.20;99.90;;;;;;6275656;22;20019;-87
2023/12/07 10:27:54;;;;;;;7.75;6.20;;;12.10;99.90;;;;;;6275399;22;20621;-86
2023/12/07 10:30:44;;;;;;;11.02;5.90;;;12.40;99.90;;;;;;6275207;22;20028;-79
2023/12/07 10:33:31;;;;;;;8.32;5.50;;;12.60;99.90;;;;;;6277193;22;20451;-84
2023/12/07 10:36:19;;;;;;;6.53;4.78;;;12.60;99.90;;;;;;6276234;22;20035;-85
2023/12/07 10:39:07;;;;;;;7.82;4.40;;;12.10;99.90;;;;;;6271938;22;20130;-83
2023/12/07 10:42:10;;;;;;;7.88;4.60;;;11.90;99.90;;;;;;6273364;22;20035;-79
2023/12/07 10:45:03;;;;;;;6.18;4.68;;;11.40;99.90;;;;;;6274730;22;20095;-85
2023/12/07 10:47:55;;;;;;;5.72;3.80;;;11.50;99.90;;;;;;6274761;22;20065;-85
2023/12/07 10:50:46;;;;;;;6.00;4.27;;;11.00;99.90;;;;;;6272635;22;20059;-85
2023/12/07 10:53:40;;;;;;;3.92;3.00;;;10.90;99.90;;;;;;6272857;22;20536;-85
2023/12/07 10:56:44;;;;;;;5.47;3.28;;;11.50;99.90;;;;;;6274194;22;20024;-84
2023/12/07 10:59:32;;;;;;;8.48;3.70;;;10.60;99.90;;;;;;6273083;22;20038;-85
2023/12/07 11:02:22;;;;;;;4.25;2.97;;;10.50;99.90;;;;;;6276485;22;20027;-84
2023/12/07 11:05:10;;;;;;;4.22;3.05;;;10.60;99.90;;;;;;6271998;22;20023;-84
2023/12/07 11:08:07;;;;;;;4.60;3.15;;;10.40;99.90;;;;;;6275418;22;20114;-84
2023/12/07 11:11:20;;;;;;;4.78;2.75;;;11.60;99.90;;;;;;6272018;22;20031;-86
2023/12/07 11:14:12;;;;;;;4.25;2.90;;;12.40;99.90;;;;;;6274387;22;20031;-86
2023/12/07 11:16:59;;;;;;;4.30;3.50;;;11.80;99.90;;;;;;6274147;22;20024;-85
2023/12/07 11:19:52;;;;;;;3.92;2.95;;;11.40;99.90;;;;;;6274063;22;20065;-84
2023/12/07 11:22:41;;;;;;;5.55;2.90;;;12.10;99.90;;;;;;6273882;22;20020;-86
2023/12/07 11:25:28;;;;;;;3.90;2.88;;;11.80;99.90;;;;;;6274239;22;20412;-86
2023/12/07 11:28:16;;;;;;;3.85;2.67;;;12.30;99.90;;;;;;6274584;22;20103;-84
2023/12/07 11:31:03;;;;;;;3.00;2.70;;;12.30;99.90;;;;;;6274770;22;20596;-80
2023/12/07 11:33:53;;;;;;;3.90;2.70;;;12.40;99.90;;;;;;6276550;22;20406;-83
2023/12/07 11:36:41;;;;;;;4.22;2.42;;;11.90;99.90;;;;;;6273167;22;20107;-84
2023/12/07 11:39:49;;;;;;;3.90;2.65;;;12.00;99.90;;;;;;6275959;22;20082;-80
2023/12/07 11:42:36;;;;;;;3.67;2.80;;;11.40;99.90;;;;;;6277399;22;20412;-80
2023/12/07 11:45:41;;;;;;;5.32;3.03;;;11.00;99.90;;;;;;6275468;22;20019;-86
2023/12/07 11:48:31;;;;;;;6.85;3.00;;;11.10;99.90;;;;;;6275542;22;20385;-84
2023/12/07 11:51:18;;;;;;;3.47;2.83;;;10.90;99.90;;;;;;6272682;22;20038;-86
2023/12/07 11:54:08;;;;;;;4.25;2.50;;;10.50;99.90;;;;;;6272400;22;20035;-85
2023/12/07 11:56:58;;;;;;;4.00;2.80;;;10.40;99.90;;;;;;6274209;22;20095;-84
2023/12/07 11:59:47;;;;;;;22.38;3.95;;;10.10;99.90;;;;;;6271653;22;20034;-84
2023/12/07 12:02:37;;;;;;;4.57;3.08;;;9.60;99.90;;;;;;6272036;22;20024;-86
2023/12/07 12:05:27;;;;;;;4.50;2.85;;;8.70;99.90;;;;;;6274413;22;20037;-85
2023/12/07 12:08:19;;;;;;;4.60;3.22;;;8.20;99.90;;;;;;6273145;22;20031;-85
2023/12/07 12:11:09;;;;;;;6.55;3.30;;;8.00;99.90;;;;;;6276992;22;20024;-85
2023/12/07 12:13:58;;;;;;;5.05;3.17;;;7.60;99.90;;;;;;6272079;22;20030;-84
2023/12/07 12:16:46;;;;;;;4.68;2.70;;;8.00;99.90;;;;;;6274363;22;20027;-84
2023/12/07 12:19:36;;;;;;;4.03;2.40;;;8.20;99.90;;;;;;6274746;22;20323;-85
2023/12/07 12:22:23;;;;;;;2.95;2.13;;;9.30;99.90;;;;;;6275751;22;20115;-84
2023/12/07 12:25:12;;;;;;;4.50;2.45;;;9.80;99.90;;;;;;6275080;22;20020;-80
2023/12/07 12:28:02;;;;;;;2.42;2.22;;;9.70;99.90;;;;;;6278233;22;20410;-86
2023/12/07 12:30:51;;;;;;;4.43;2.20;;;10.10;99.90;;;;;;6275200;22;20032;-84
2023/12/07 12:33:39;;;;;;;4.15;3.25;;;9.80;99.90;;;;;;6279478;22;20039;-85
2023/12/07 12:36:28;;;;;;;3.38;2.47;;;9.00;99.90;;;;;;6276163;22;20165;-80
2023/12/07 12:39:18;;;;;;;5.28;2.92;;;8.70;99.90;;;;;;6279210;22;20031;-85
2023/12/07 12:42:16;;;;;;;6.35;3.92;;;9.00;99.90;;;;;;6277242;22;20019;-85
2023/12/07 12:45:10;;;;;;;9.48;6.00;;;8.40;99.90;;;;;;6273920;22;20202;-84
2023/12/07 12:47:57;;;;;;;4.55;3.40;;;8.10;99.90;;;;;;6274541;22;20133;-85
2023/12/07 12:50:48;;;;;;;7.05;4.35;;;8.40;99.90;;;;;;6275226;22;20035;-86
2023/12/07 12:53:40;;;;;;;6.40;4.03;;;8.90;99.90;;;;;;6276808;22;20034;-85
2023/12/07 12:56:29;;;;;;;;;;;9.60;99.90;;;;;;6275522;22;20058;-83
2023/12/07 12:59:18;;;;;;;10.13;4.82;;;9.20;99.90;;;;;;6272863;22;19990;-85
2023/12/07 13:02:08;;;;;;;7.82;4.68;;;9.60;99.90;;;;;;6277259;22;20369;-85
2023/12/07 13:04:58;;;;;;;7.93;4.47;;;9.70;99.90;;;;;;6273370;22;20089;-86
2023/12/07 13:07:49;;;;;;;7.22;4.63;;;10.10;99.90;;;;;;6274987;22;20027;-86
2023/12/07 13:10:58;;;;;;;9.00;4.30;;;9.70;99.90;;;;;;6276155;22;20390;-84
2023/12/07 13:13:50;;;;;;;8.43;4.45;;;9.30;99.90;;;;;;6277469;22;20162;-85
2023/12/07 13:16:40;;;;;;;7.45;4.30;;;9.20;99.90;;;;;;6276657;22;20602;-85
2023/12/07 13:19:29;;;;;;;6.78;3.97;;;8.90;99.90;;;;;;6273686;22;20019;-83
2023/12/07 13:22:17;;;;;;;6.35;3.78;;;8.70;99.90;;;;;;6275121;22;20099;-79
2023/12/07 13:25:06;;;;;;;5.72;4.20;;;8.60;99.90;;;;;;6274406;22;20399;-85
2023/12/07 13:27:56;;;;;;;5.85;3.70;;;8.80;99.90;;;;;;6275850;22;20024;-83
2023/12/07 13:30:44;;;;;;;4.50;3.33;;;8.50;99.90;;;;;;6276247;22;20027;-83
2023/12/07 13:33:34;;;;;;;9.13;4.60;;;8.60;99.90;;;;;;6277220;22;20462;-80
2023/12/07 13:36:37;;;;;;;5.18;3.95;;;9.40;99.90;;;;;;6278818;22;20038;-84
2023/12/07 13:39:26;;;;;;;4.47;3.25;;;8.70;99.90;;;;;;6279925;22;20111;-84
2023/12/07 13:42:17;;;;;;;5.97;4.10;;;8.70;99.90;;;;;;6278221;22;20462;-85
2023/12/07 13:45:08;;;;;;;5.78;3.63;;;8.80;99.90;;;;;;6276890;22;20038;-84
2023/12/07 13:47:55;;;;;;;3.65;3.30;;;8.70;99.90;;;;;;6274058;22;20366;-85
2023/12/07 13:50:43;;;;;;;6.20;3.08;;;8.60;99.90;;;;;;6278314;22;20434;-85
2023/12/07 13:53:30;;;;;;;5.53;3.60;;;8.40;99.90;;;;;;6275399;22;20024;-83
2023/12/07 13:56:18;;;;;;;5.35;3.20;;;8.40;99.90;;;;;;6274847;22;20051;-84
2023/12/07 13:59:10;;;;;;;8.13;3.22;;;8.50;99.90;;;;;;6274225;22;20023;-84
2023/12/07 14:02:00;;;;;;;;;;;8.70;99.90;;;;;;6277129;22;20398;-84
2023/12/07 14:04:50;;;;;;;5.30;2.70;;;8.90;99.90;;;;;;6275558;22;20182;-85
2023/12/07 14:07:38;;;;;;;3.45;2.55;;;8.80;99.90;;;;;;6275683;22;20058;-86
2023/12/07 14:10:25;;;;;;;4.03;2.67;;;8.30;99.90;;;;;;6273399;22;20032;-85
2023/12/07 14:13:17;;;;;;;6.18;3.00;;;7.70;99.90;;;;;;6276509;22;20135;-85
2023/12/07 14:16:08;;;;;;;5.35;3.13;;;7.10;99.90;;;;;;6275503;22;20361;-82
2023/12/07 14:19:06;;;;;;;4.25;3.35;;;6.60;99.90;;;;;;6274955;22;20024;-84
2023/12/07 14:22:03;;;;;;;5.07;3.10;;;6.20;99.90;;;;;;6271773;22;20024;-81
2023/12/07 14:24:52;;;;;;;6.00;3.00;;;5.70;99.90;;;;;;6274582;22;20024;-85
2023/12/07 14:27:39;;;;;;;4.47;3.10;;;5.50;99.90;;;;;;6275376;22;20027;-82
2023/12/07 14:30:29;;;;;;;4.75;3.00;;;5.20;99.90;;;;;;6274037;22;20082;-80
2023/12/07 14:33:16;;;;;;;5.97;3.20;;;4.80;99.90;;;;;;6278078;22;20039;-86
2023/12/07 14:36:04;;;;;;;5.90;3.53;;;4.40;99.90;;;;;;6275988;22;20024;-86